createdAt,value
2022-07-29T00:00:23.256Z,56.88
2022-07-29T00:02:51.434Z,56.85
2022-07-29T00:05:19.570Z,58.14
2022-07-29T00:07:47.883Z,59.46
2022-07-29T00:10:16.017Z,60.81
2022-07-29T00:12:44.188Z,63.29
2022-07-29T00:15:13.815Z,62.65
2022-07-29T00:17:42.251Z,63.16
2022-07-29T00:20:11.536Z,64.39
2022-07-29T00:22:40.003Z,65.65
2022-07-29T00:25:08.688Z,69.79
2022-07-29T00:27:37.252Z,70.05
2022-07-29T00:30:06.116Z,71.22
2022-07-29T00:32:36.449Z,71.77
2022-07-29T00:35:22.322Z,73.54
2022-07-29T00:37:50.450Z,75.56
2022-07-29T00:40:18.646Z,78.83
2022-07-29T00:42:54.297Z,80.29
2022-07-29T00:45:22.971Z,80.75
2022-07-29T00:47:52.437Z,81.95
2022-07-29T00:50:20.690Z,84.41
2022-07-29T00:52:48.986Z,85.63
2022-07-29T00:55:18.415Z,86.56
2022-07-29T00:57:47.617Z,83.91
2022-07-29T01:00:19.391Z,81.60
2022-07-29T01:02:49.134Z,81.37
2022-07-29T01:05:24.943Z,82.36
2022-07-29T01:08:14.058Z,82.14
2022-07-29T01:10:43.799Z,79.82
2022-07-29T01:13:12.267Z,82.46
2022-07-29T01:15:49.105Z,81.40
2022-07-29T01:18:22.890Z,81.21
2022-07-29T01:21:12.163Z,82.71
2022-07-29T01:23:58.464Z,83.75
2022-07-29T01:26:40.630Z,84.33
2022-07-29T01:29:14.911Z,85.97
2022-07-29T01:31:59.054Z,84.85
2022-07-29T01:34:37.437Z,87.49
2022-07-29T01:37:15.126Z,87.99
2022-07-29T01:39:46.048Z,88.86
2022-07-29T01:42:21.689Z,89.85
2022-07-29T01:44:57.990Z,90.55
2022-07-29T01:47:33.486Z,91.72
2022-07-29T01:50:08.360Z,93.64
2022-07-29T01:52:40.279Z,93.56
2022-07-29T01:55:14.844Z,94.89
2022-07-29T01:57:47.651Z,95.31
2022-07-29T02:00:19.171Z,96.60
2022-07-29T02:02:49.266Z,97.46
2022-07-29T02:05:21.136Z,96.21
2022-07-29T02:07:51.554Z,96.29
2022-07-29T02:10:25.870Z,95.95
2022-07-29T02:12:57.004Z,95.08
2022-07-29T02:15:29.209Z,95.61
2022-07-29T02:18:01.392Z,96.32
2022-07-29T02:20:30.240Z,96.98
2022-07-29T02:23:00.671Z,96.71
2022-07-29T02:25:36.743Z,97.13
2022-07-29T02:28:07.740Z,97.50
2022-07-29T02:30:41.101Z,97.94
2022-07-29T02:33:11.814Z,98.52
2022-07-29T02:35:42.631Z,97.38
2022-07-29T02:38:31.476Z,95.25
2022-07-29T02:41:02.032Z,85.03
2022-07-29T02:43:32.517Z,76.78
2022-07-29T02:46:04.615Z,70.33
2022-07-29T02:48:45.983Z,66.60
2022-07-29T02:51:43.812Z,65.11
2022-07-29T02:54:11.416Z,65.32
2022-07-29T02:56:42.526Z,64.48
2022-07-29T02:59:13.518Z,64.24
2022-07-29T03:01:45.784Z,62.72
2022-07-29T03:04:15.190Z,62.38
2022-07-29T03:06:45.619Z,62.24
2022-07-29T03:09:15.247Z,61.22
2022-07-29T03:11:49.418Z,61.41
2022-07-29T03:14:20.288Z,62.43
2022-07-29T03:16:50.837Z,60.63
2022-07-29T03:19:19.951Z,60.87
2022-07-29T03:21:48.163Z,61.43
2022-07-29T03:24:29.845Z,62.72
2022-07-29T03:26:58.726Z,61.96
2022-07-29T03:29:33.450Z,62.42
2022-07-29T03:32:08.454Z,62.67
2022-07-29T03:34:38.383Z,61.14
2022-07-29T03:37:07.153Z,60.51
2022-07-29T03:39:40.635Z,60.37
2022-07-29T03:42:12.369Z,59.02
2022-07-29T03:44:42.847Z,58.29
2022-07-29T03:47:15.851Z,58.75
2022-07-29T03:49:46.405Z,59.60
2022-07-29T03:52:14.758Z,60.64
2022-07-29T03:54:42.947Z,61.71
2022-07-29T03:57:13.302Z,61.97
2022-07-29T03:59:42.205Z,63.53
2022-07-29T04:02:14.737Z,62.91
2022-07-29T04:04:43.822Z,64.97
2022-07-29T04:07:14.804Z,63.82
2022-07-29T04:09:43.630Z,63.00
2022-07-29T04:12:12.273Z,64.53
2022-07-29T04:14:40.868Z,66.43
2022-07-29T04:17:09.247Z,68.28
2022-07-29T04:19:38.653Z,68.78
2022-07-29T04:22:06.879Z,69.81
2022-07-29T04:24:34.983Z,69.94
2022-07-29T04:27:03.063Z,71.80
2022-07-29T04:29:31.253Z,73.43
2022-07-29T04:31:59.266Z,74.10
2022-07-29T04:34:27.952Z,73.53
2022-07-29T04:36:58.053Z,73.44
2022-07-29T04:39:29.655Z,75.77
2022-07-29T04:41:59.074Z,76.24
2022-07-29T04:44:29.185Z,79.13
2022-07-29T04:46:58.765Z,77.14
2022-07-29T04:49:26.915Z,75.37
2022-07-29T04:51:55.322Z,72.30
2022-07-29T04:54:24.837Z,72.65
2022-07-29T04:56:53.918Z,67.55
2022-07-29T04:59:22.063Z,67.00
2022-07-29T05:01:50.214Z,66.30
2022-07-29T05:04:18.776Z,66.28
2022-07-29T05:06:47.335Z,66.05
2022-07-29T05:09:15.483Z,66.04
2022-07-29T05:11:45.091Z,64.19
2022-07-29T05:14:13.269Z,64.13
2022-07-29T05:16:42.850Z,63.48
2022-07-29T05:19:14.439Z,62.19
2022-07-29T05:21:43.230Z,62.60
2022-07-29T05:24:11.296Z,62.16
2022-07-29T05:26:39.655Z,63.23
2022-07-29T05:29:43.187Z,62.70
2022-07-29T05:31:57.307Z,62.82
2022-07-29T05:34:26.009Z,63.19
2022-07-29T05:36:54.340Z,62.76
2022-07-29T05:39:22.518Z,61.72
2022-07-29T05:42:11.168Z,61.31
2022-07-29T05:44:41.081Z,60.61
2022-07-29T05:47:09.342Z,60.50
2022-07-29T05:49:37.638Z,58.64
2022-07-29T05:52:06.389Z,58.87
2022-07-29T05:54:34.542Z,60.03
2022-07-29T05:57:02.766Z,60.80
2022-07-29T05:59:30.931Z,61.48
2022-07-29T06:02:00.511Z,60.78
2022-07-29T06:04:28.759Z,61.52
2022-07-29T06:06:56.993Z,60.86
2022-07-29T06:09:25.210Z,60.06
2022-07-29T06:11:53.478Z,58.94
2022-07-29T06:14:21.716Z,60.05
2022-07-29T06:16:49.823Z,58.13
2022-07-29T06:19:19.514Z,58.51
2022-07-29T06:21:47.930Z,56.62
2022-07-29T06:24:17.931Z,56.33
2022-07-29T06:26:46.360Z,54.87
2022-07-29T06:29:14.466Z,54.22
2022-07-29T06:31:42.867Z,52.69
2022-07-29T06:34:11.001Z,52.06
2022-07-29T06:36:41.022Z,50.58
2022-07-29T06:39:11.037Z,49.70
2022-07-29T06:41:40.314Z,49.05
2022-07-29T06:44:11.448Z,47.22
2022-07-29T06:46:39.648Z,46.86
2022-07-29T06:49:07.978Z,47.39
2022-07-29T06:51:36.142Z,46.04
2022-07-29T06:54:06.588Z,49.47
2022-07-29T06:56:39.364Z,47.82
2022-07-29T06:59:10.150Z,46.99
2022-07-29T07:01:38.944Z,49.51
2022-07-29T07:04:07.607Z,52.34
2022-07-29T07:06:35.666Z,48.15
2022-07-29T07:09:05.777Z,47.65
2022-07-29T07:11:33.959Z,46.78
2022-07-29T07:14:03.974Z,48.35
2022-07-29T07:16:33.139Z,47.95
2022-07-29T07:19:01.488Z,46.52
2022-07-29T07:21:30.703Z,49.22
2022-07-29T07:23:59.889Z,50.95
2022-07-29T07:26:29.912Z,51.36
2022-07-29T07:28:58.169Z,51.50
2022-07-29T07:31:26.332Z,53.07
2022-07-29T07:33:55.249Z,52.49
2022-07-29T07:36:24.069Z,55.71
2022-07-29T07:38:52.222Z,53.72
2022-07-29T07:41:20.389Z,53.04
2022-07-29T07:43:50.110Z,55.64
2022-07-29T07:46:18.327Z,53.43
2022-07-29T07:48:46.458Z,53.41
2022-07-29T07:51:14.627Z,51.00
2022-07-29T07:53:42.706Z,49.72
2022-07-29T07:56:12.127Z,51.24
2022-07-29T07:58:41.075Z,52.41
2022-07-29T08:01:11.257Z,56.30
2022-07-29T08:03:40.181Z,57.23
2022-07-29T08:06:08.634Z,56.43
2022-07-29T08:08:37.896Z,58.55
2022-07-29T08:11:09.736Z,62.07
2022-07-29T08:13:39.276Z,58.02
2022-07-29T08:16:13.673Z,54.74
2022-07-29T08:18:45.073Z,54.77
2022-07-29T08:21:15.140Z,53.96
2022-07-29T08:23:57.659Z,55.52
2022-07-29T08:26:27.957Z,55.14
2022-07-29T08:28:56.085Z,57.67
2022-07-29T08:31:24.282Z,51.36
2022-07-29T08:33:53.911Z,46.38
2022-07-29T08:36:22.904Z,45.11
2022-07-29T08:38:51.885Z,44.40
2022-07-29T08:41:20.747Z,42.75
2022-07-29T08:43:49.352Z,43.67
2022-07-29T08:46:18.462Z,45.12
2022-07-29T08:48:46.979Z,45.27
2022-07-29T08:51:19.492Z,45.97
2022-07-29T08:53:50.496Z,44.48
2022-07-29T08:56:19.610Z,44.38
2022-07-29T08:58:51.663Z,41.77
2022-07-29T09:01:36.109Z,42.71
2022-07-29T09:04:13.374Z,48.41
2022-07-29T09:06:46.798Z,47.84
2022-07-29T09:09:15.623Z,44.37
2022-07-29T09:11:44.865Z,45.28
2022-07-29T09:14:15.147Z,44.01
2022-07-29T09:17:00.851Z,44.66
2022-07-29T09:19:30.970Z,45.55
2022-07-29T09:22:03.535Z,46.66
2022-07-29T09:24:45.656Z,43.69
2022-07-29T09:27:23.003Z,45.21
2022-07-29T09:30:01.192Z,43.04
2022-07-29T09:32:30.484Z,41.37
2022-07-29T09:35:17.947Z,42.03
2022-07-29T09:37:48.147Z,38.60
2022-07-29T09:40:18.476Z,37.85
2022-07-29T09:42:47.241Z,37.08
2022-07-29T09:45:29.025Z,41.06
2022-07-29T09:47:59.894Z,37.74
2022-07-29T09:50:38.641Z,34.11
2022-07-29T09:53:10.270Z,35.51
2022-07-29T09:55:49.224Z,36.16
2022-07-29T09:58:18.249Z,36.30
2022-07-29T10:00:46.920Z,35.97
2022-07-29T10:03:16.584Z,33.99
2022-07-29T10:05:46.261Z,34.94
2022-07-29T10:08:15.802Z,36.73
2022-07-29T10:10:45.483Z,37.37
2022-07-29T10:13:16.647Z,36.94
2022-07-29T10:15:47.224Z,36.40
2022-07-29T10:18:18.222Z,37.22
2022-07-29T10:20:46.880Z,37.49
2022-07-29T10:23:16.690Z,36.54
2022-07-29T10:25:46.562Z,35.89
2022-07-29T10:28:16.781Z,35.02
2022-07-29T10:30:46.878Z,32.96
2022-07-29T10:33:37.792Z,33.56
2022-07-29T10:36:27.436Z,33.19
2022-07-29T10:39:07.332Z,34.20
2022-07-29T10:42:08.048Z,34.03
2022-07-29T10:44:41.337Z,34.69
2022-07-29T10:47:09.575Z,34.74
2022-07-29T10:49:41.208Z,34.15
2022-07-29T10:52:10.390Z,34.60
2022-07-29T10:54:45.958Z,33.71
2022-07-29T10:57:26.001Z,33.24
2022-07-29T11:00:34.091Z,34.53
2022-07-29T11:08:45.701Z,34.44
2022-07-29T11:11:44.094Z,33.85
2022-07-29T11:14:20.091Z,33.48
2022-07-29T11:17:06.915Z,32.71
2022-07-29T11:19:40.123Z,33.48
2022-07-29T11:22:11.831Z,32.98
2022-07-29T11:24:50.449Z,32.70
2022-07-29T11:27:23.003Z,33.01
2022-07-29T11:29:56.705Z,32.19
2022-07-29T11:32:29.469Z,31.90
2022-07-29T11:35:17.508Z,32.70
2022-07-29T11:37:52.547Z,32.85
2022-07-29T11:40:25.997Z,35.20
2022-07-29T11:42:55.461Z,33.87
2022-07-29T11:45:43.164Z,34.26
2022-07-29T11:48:32.054Z,36.38
2022-07-29T11:51:02.980Z,36.29
2022-07-29T11:53:32.783Z,35.92
2022-07-29T11:56:02.731Z,32.84
2022-07-29T11:58:33.627Z,31.63
2022-07-29T12:01:04.881Z,31.66
2022-07-29T12:06:22.461Z,30.37
2022-07-29T12:08:50.595Z,32.96
2022-07-29T12:11:21.580Z,32.52
2022-07-29T12:13:52.435Z,31.91
2022-07-29T12:16:25.518Z,30.93
2022-07-29T12:19:02.280Z,29.32
2022-07-29T12:21:31.001Z,29.75
2022-07-29T12:24:08.750Z,28.73
2022-07-29T12:26:37.977Z,28.49
2022-07-29T12:29:20.003Z,29.19
2022-07-29T12:31:48.948Z,29.56
2022-07-29T12:34:18.183Z,29.41
2022-07-29T12:36:46.517Z,30.49
2022-07-29T12:39:14.826Z,29.06
2022-07-29T12:41:43.038Z,29.03
2022-07-29T12:44:13.032Z,30.40
2022-07-29T12:46:41.214Z,28.32
2022-07-29T12:49:09.969Z,28.03
2022-07-29T12:51:40.198Z,30.88
2022-07-29T12:54:11.375Z,29.71
2022-07-29T12:56:44.562Z,31.00
2022-07-29T12:59:16.811Z,28.86
2022-07-29T13:01:47.930Z,28.90
2022-07-29T13:04:27.397Z,30.17
2022-07-29T13:07:02.284Z,28.29
2022-07-29T13:09:40.405Z,27.44
2022-07-29T13:12:11.139Z,28.20
2022-07-29T13:14:42.375Z,27.99
2022-07-29T13:17:12.355Z,27.90
2022-07-29T13:19:42.216Z,29.31
2022-07-29T13:22:11.119Z,27.81
2022-07-29T13:24:49.441Z,26.75
2022-07-29T13:27:18.106Z,27.60
2022-07-29T13:29:48.041Z,28.32
2022-07-29T13:32:16.531Z,30.00
2022-07-29T13:34:44.705Z,28.34
2022-07-29T13:37:12.930Z,28.11
2022-07-29T13:39:41.097Z,29.98
2022-07-29T13:42:11.074Z,31.65
2022-07-29T13:44:39.470Z,29.95
2022-07-29T13:47:09.638Z,28.71
2022-07-29T13:49:37.786Z,27.63
2022-07-29T13:52:08.206Z,26.99
2022-07-29T13:54:42.107Z,27.36
2022-07-29T13:57:11.520Z,28.61
2022-07-29T13:59:40.112Z,28.62
2022-07-29T14:02:10.922Z,29.86
2022-07-29T14:04:39.686Z,29.49
2022-07-29T14:07:09.171Z,30.34
2022-07-29T14:09:41.326Z,30.86
2022-07-29T14:12:10.574Z,32.15
2022-07-29T14:14:38.735Z,32.33
2022-07-29T14:17:08.172Z,32.39
2022-07-29T14:19:39.130Z,32.10
2022-07-29T14:22:09.385Z,32.78
2022-07-29T14:24:38.031Z,33.06
2022-07-29T14:27:06.767Z,33.15
2022-07-29T14:29:37.817Z,31.01
2022-07-29T14:32:07.877Z,29.45
2022-07-29T14:34:38.634Z,30.45
2022-07-29T14:37:07.610Z,29.74
2022-07-29T14:39:42.864Z,30.26
2022-07-29T14:42:12.719Z,31.26
2022-07-29T14:44:42.105Z,31.11
2022-07-29T14:47:10.650Z,31.52
2022-07-29T14:49:40.103Z,32.05
2022-07-29T14:52:08.207Z,30.08
2022-07-29T14:54:36.322Z,31.53
2022-07-29T14:57:04.547Z,32.00
2022-07-29T14:59:32.713Z,32.10
2022-07-29T15:02:01.331Z,31.92
2022-07-29T15:04:29.951Z,32.04
2022-07-29T15:06:59.401Z,32.85
2022-07-29T15:09:27.653Z,32.39
2022-07-29T15:11:56.150Z,31.80
2022-07-29T15:14:24.458Z,32.50
2022-07-29T15:16:52.714Z,32.88
2022-07-29T15:19:21.451Z,32.86
2022-07-29T15:21:49.484Z,31.71
2022-07-29T15:24:19.292Z,31.06
2022-07-29T15:26:48.405Z,31.13
2022-07-29T15:29:17.059Z,30.97
2022-07-29T15:31:45.397Z,31.14
2022-07-29T15:34:13.614Z,30.40
2022-07-29T15:36:52.085Z,30.05
2022-07-29T15:39:23.540Z,30.54
2022-07-29T15:41:52.073Z,32.40
2022-07-29T15:44:21.308Z,32.16
2022-07-29T15:47:05.045Z,31.56
2022-07-29T15:49:47.133Z,31.82
2022-07-29T15:52:25.039Z,31.77
2022-07-29T15:54:56.173Z,32.18
2022-07-29T15:57:24.897Z,33.07
2022-07-29T15:59:53.312Z,32.70
2022-07-29T16:02:21.809Z,31.79
2022-07-29T16:04:49.955Z,32.43
2022-07-29T16:07:18.147Z,31.27
2022-07-29T16:09:51.024Z,31.44
2022-07-29T16:12:22.462Z,31.78
2022-07-29T16:14:51.180Z,31.06
2022-07-29T16:17:19.602Z,31.13
2022-07-29T16:19:47.929Z,30.67
2022-07-29T16:22:16.478Z,29.36
2022-07-29T16:24:44.620Z,30.92
2022-07-29T16:27:12.751Z,29.53
2022-07-29T16:29:42.282Z,29.35
2022-07-29T16:32:10.605Z,28.01
2022-07-29T16:34:38.965Z,32.61
2022-07-29T16:37:07.038Z,34.45
2022-07-29T16:39:35.208Z,36.43
2022-07-29T16:42:05.427Z,36.55
2022-07-29T16:44:34.875Z,37.50
2022-07-29T16:47:05.621Z,37.79
2022-07-29T16:49:33.724Z,38.34
2022-07-29T16:52:01.957Z,38.93
2022-07-29T16:54:29.980Z,39.75
2022-07-29T16:57:00.594Z,39.84
2022-07-29T16:59:29.719Z,41.37
2022-07-29T17:01:58.068Z,42.13
2022-07-29T17:04:29.118Z,43.80
2022-07-29T17:06:57.662Z,46.05
2022-07-29T17:09:26.275Z,47.07
2022-07-29T17:11:55.729Z,47.61
2022-07-29T17:14:25.551Z,49.47
2022-07-29T17:17:01.054Z,50.87
2022-07-29T17:19:32.810Z,51.09
2022-07-29T17:22:09.502Z,51.80
2022-07-29T17:24:40.980Z,52.04
2022-07-29T17:27:09.660Z,54.64
2022-07-29T17:29:38.608Z,55.26
2022-07-29T17:32:08.063Z,55.77
2022-07-29T17:34:38.298Z,56.96
2022-07-29T17:37:07.950Z,57.29
2022-07-29T17:39:36.078Z,58.82
2022-07-29T17:42:04.895Z,58.92
2022-07-29T17:44:36.430Z,58.67
2022-07-29T17:47:05.706Z,57.86
2022-07-29T17:49:37.514Z,57.69
2022-07-29T17:52:06.258Z,60.04
2022-07-29T17:54:34.543Z,61.38
2022-07-29T17:57:02.750Z,62.51
2022-07-29T17:59:30.850Z,62.97
2022-07-29T18:01:59.048Z,66.23
2022-07-29T18:04:28.558Z,66.49
2022-07-29T18:06:58.002Z,65.81
2022-07-29T18:09:26.273Z,66.67
2022-07-29T18:11:54.413Z,65.88
2022-07-29T18:14:22.662Z,67.29
2022-07-29T18:16:50.992Z,67.44
2022-07-29T18:19:19.121Z,68.03
2022-07-29T18:21:54.651Z,68.15
2022-07-29T18:24:27.483Z,68.89
2022-07-29T18:26:56.525Z,68.92
2022-07-29T18:29:24.887Z,69.70
2022-07-29T18:31:53.013Z,69.15
2022-07-29T18:34:21.132Z,69.45
2022-07-29T18:36:49.323Z,70.21
2022-07-29T18:39:19.702Z,71.25
2022-07-29T18:41:51.614Z,71.07
2022-07-29T18:44:22.072Z,70.55
2022-07-29T18:46:52.174Z,70.83
2022-07-29T18:49:20.651Z,71.16
2022-07-29T18:51:49.332Z,71.21
2022-07-29T18:54:18.339Z,71.27
2022-07-29T18:56:47.422Z,71.78
2022-07-29T18:59:20.122Z,71.01
2022-07-29T19:01:48.820Z,70.55
2022-07-29T19:04:17.278Z,70.03
2022-07-29T19:06:45.713Z,71.33
2022-07-29T19:09:14.085Z,71.65
2022-07-29T19:11:42.212Z,71.62
2022-07-29T19:14:10.486Z,70.44
2022-07-29T19:16:39.946Z,70.33
2022-07-29T19:19:08.874Z,70.96
2022-07-29T19:21:37.155Z,69.56
2022-07-29T19:24:07.851Z,70.11
2022-07-29T19:26:43.797Z,70.14
2022-07-29T19:29:11.883Z,70.87
2022-07-29T19:31:41.543Z,72.27
2022-07-29T19:34:10.317Z,74.24
2022-07-29T19:36:38.722Z,75.67
2022-07-29T19:39:06.851Z,77.29
2022-07-29T19:41:34.977Z,77.40
2022-07-29T19:44:03.215Z,78.46
2022-07-29T19:46:31.481Z,79.22
2022-07-29T19:49:01.106Z,80.36
2022-07-29T19:51:29.089Z,82.65
2022-07-29T19:53:57.234Z,83.34
2022-07-29T19:56:27.180Z,84.19
2022-07-29T19:58:57.274Z,83.16
2022-07-29T20:01:25.990Z,83.93
2022-07-29T20:03:54.787Z,82.75
2022-07-29T20:06:24.294Z,82.45
2022-07-29T20:08:56.776Z,81.93
2022-07-29T20:11:27.304Z,82.25
2022-07-29T20:13:55.427Z,84.13
2022-07-29T20:16:23.656Z,84.14
2022-07-29T20:18:53.774Z,84.31
2022-07-29T20:21:21.961Z,85.39
2022-07-29T20:23:51.469Z,85.85
2022-07-29T20:26:19.436Z,87.12
2022-07-29T20:28:49.412Z,89.34
2022-07-29T20:31:18.752Z,90.39
2022-07-29T20:33:46.960Z,91.79
2022-07-29T20:36:15.763Z,92.56
2022-07-29T20:38:43.937Z,93.76
2022-07-29T20:41:13.451Z,96.67
2022-07-29T20:43:41.384Z,99.87
2022-07-29T20:46:10.008Z,100.00
2022-07-29T20:48:39.571Z,100.00
2022-07-29T20:51:08.294Z,100.00
2022-07-29T20:53:38.227Z,100.00
2022-07-29T20:56:07.482Z,100.00
2022-07-29T20:58:38.089Z,100.00
2022-07-29T21:01:07.569Z,100.00
2022-07-29T21:03:35.513Z,100.00
2022-07-29T21:06:03.759Z,100.00
2022-07-29T21:08:32.049Z,100.00
2022-07-29T21:11:00.125Z,100.00
2022-07-29T21:13:28.306Z,100.00
2022-07-29T21:16:02.021Z,100.00
2022-07-29T21:18:36.876Z,100.00
2022-07-29T21:21:06.275Z,100.00
2022-07-29T21:23:34.921Z,100.00
2022-07-29T21:26:03.095Z,100.00
2022-07-29T21:28:36.540Z,100.00
2022-07-29T21:31:07.796Z,100.00
2022-07-29T21:33:36.373Z,100.00
2022-07-29T21:38:53.859Z,100.00
2022-07-29T21:41:22.364Z,100.00
2022-07-29T21:43:50.404Z,100.00
2022-07-29T21:46:20.680Z,100.00
2022-07-29T21:48:52.679Z,100.00
2022-07-29T21:51:20.838Z,100.00
2022-07-29T21:53:50.487Z,100.00
2022-07-29T21:56:21.419Z,100.00
2022-07-29T21:58:52.657Z,100.00
2022-07-29T22:01:22.210Z,100.00
2022-07-29T22:03:50.247Z,100.00
2022-07-29T22:06:18.599Z,100.00
2022-07-29T22:08:47.804Z,100.00
2022-07-29T22:11:16.205Z,100.00
2022-07-29T22:13:44.351Z,100.00
2022-07-29T22:16:14.814Z,100.00
2022-07-29T22:18:46.911Z,100.00
2022-07-29T22:21:15.196Z,100.00
2022-07-29T22:23:43.494Z,100.00
2022-07-29T22:26:11.744Z,100.00
2022-07-29T22:28:39.904Z,100.00
2022-07-29T22:31:08.828Z,100.00
2022-07-29T22:33:37.090Z,100.00
2022-07-29T22:36:07.410Z,100.00
2022-07-29T22:38:35.604Z,100.00
2022-07-29T22:41:03.802Z,100.00
2022-07-29T22:43:31.899Z,100.00
2022-07-29T22:46:00.305Z,100.00
2022-07-29T22:48:28.569Z,100.00
2022-07-29T22:50:56.662Z,100.00
2022-07-29T22:53:26.074Z,100.00
2022-07-29T22:55:54.564Z,100.00
2022-07-29T22:58:22.681Z,100.00
2022-07-29T23:00:50.909Z,100.00
2022-07-29T23:03:19.076Z,100.00
2022-07-29T23:05:47.222Z,100.00
2022-07-29T23:08:15.274Z,100.00
2022-07-29T23:10:44.868Z,100.00
2022-07-29T23:13:12.939Z,100.00
2022-07-29T23:15:41.336Z,100.00
2022-07-29T23:18:09.574Z,100.00
2022-07-29T23:20:37.695Z,100.00
2022-07-29T23:23:05.794Z,100.00
2022-07-29T23:25:33.885Z,100.00
2022-07-29T23:28:03.448Z,100.00
2022-07-29T23:30:31.633Z,100.00
2022-07-29T23:32:59.804Z,100.00
2022-07-29T23:35:28.414Z,100.00
2022-07-29T23:37:56.554Z,100.00
2022-07-29T23:40:24.834Z,100.00
2022-07-29T23:42:53.011Z,100.00
2022-07-29T23:45:22.511Z,100.00
2022-07-29T23:48:08.070Z,100.00
2022-07-29T23:50:36.193Z,100.00
2022-07-29T23:53:04.572Z,100.00
2022-07-29T23:55:37.332Z,100.00
2022-07-29T23:58:07.271Z,100.00
